This is the latest recevied weather packets stored in our database for station/object K7VLL. If no packets are shown the sender has not sent any weather packets the latest 10 day(s).
| Time | Temp. | Humidity | Pressure | Rain* | Wind** | Luminosity | Snow |
|---|---|---|---|---|---|---|---|
| 1777952999 | 15° C | 66% | 1091.2 hPa | 0 mm | - | 0 W/m² | - |
| 1777951198 | 16.11° C | 57% | 1090.3 hPa | 0 mm | - | 0 W/m² | - |
| 1777949398 | 16.11° C | 60% | 1090.4 hPa | 0 mm | - | 2 W/m² | - |
| 1777947592 | 16.11° C | 60% | 1090.4 hPa | 0 mm | - | 2 W/m² | - |
| 1777945788 | 16.67° C | 61% | 1090.6 hPa | 1.78 mm | - | 2 W/m² | - |
| 1777943989 | 18.33° C | 48% | 1090.6 hPa | 0 mm | - | 8 W/m² | - |
| 1777942186 | 18.33° C | 48% | 1090.1 hPa | 0 mm | - | 19 W/m² | - |
| 1777940385 | 20.56° C | 36% | 1089.8 hPa | 0 mm | - | 39 W/m² | - |
| 1777938584 | 20.56° C | 40% | 1089.3 hPa | 0 mm | - | 50 W/m² | - |
| 1777936783 | 21.67° C | 38% | 1089.7 hPa | 0 mm | - | 46 W/m² | - |
| 1777934982 | 24.44° C | 24% | 1090.1 hPa | 0 mm | - | 56 W/m² | - |
| 1777933180 | 25.56° C | 18% | 1089.5 hPa | 0 mm | - | 97 W/m² | - |
| 1777931378 | 26.67° C | 17% | 1089.7 hPa | 0 mm | - | 105 W/m² | - |
| 1777929576 | 27.22° C | 15% | 1089.6 hPa | 0 mm | - | 283 W/m² | - |
| 1777927771 | 27.22° C | 15% | 1089.7 hPa | 0 mm | - | 212 W/m² | - |
| 1777925972 | 27.78° C | 17% | 1089.4 hPa | 0 mm | - | 245 W/m² | - |
| 1777924170 | 27.22° C | 19% | 1089.7 hPa | 0 mm | - | 270 W/m² | - |
| 1777922366 | 26.67° C | 18% | 1089.3 hPa | 0 mm | - | 284 W/m² | - |
| 1777920561 | 27.22° C | 19% | 1089.4 hPa | 0 mm | - | 310 W/m² | - |
| 1777918760 | 26.67° C | 19% | 1089.9 hPa | 0 mm | - | 357 W/m² | - |
| 1777916958 | 26.11° C | 20% | 1089.9 hPa | 0 mm | - | 307 W/m² | - |
| 1777915156 | 26.11° C | 22% | 1090.1 hPa | 0 mm | - | 271 W/m² | - |
| 1777913354 | 26.11° C | 23% | 1090.1 hPa | 0 mm | - | 285 W/m² | - |
| 1777911550 | 25° C | 24% | 1089.7 hPa | 0 mm | - | 271 W/m² | - |
| 1777909749 | 25° C | 26% | 1090 hPa | 0 mm | - | 176 W/m² | - |
* Rain latest hour (hover to see other rain measurements)
** Current wind speed in m/s (hover to see current wind gust speed)